BEL5BV EBBR-LFPG
Flight info
| Callsign | BEL5BV |
|---|---|
| Flight time | 0h 33m |
| Altitude | 19000 |
| Route | CIV Y50 MATIX |
| Aircraft | A320/M-DE3FGHIJ1LORVWY/H |
Departure
| Time | 2026-05-06 13:45 |
|---|---|
| Airport | Brussels Airport (EBBR) |
Arrival
| Time | 2026-05-06 14:18 |
|---|---|
| Airport | Charles de Gaulle International Airport (LFPG) |
| Time | Latitude | Longitude | Altitude | Speed | Heading |
|---|---|---|---|---|---|
| 2026-05-06 13:25 | 50.90280 | 4.48147 | 117 ft | 0 kts | 155° |
| 2026-05-06 13:31 | 50.90281 | 4.48147 | 117 ft | 0 kts | 155° |
| 2026-05-06 13:37 | 50.90283 | 4.48145 | 117 ft | 1 kts | 156° |
| 2026-05-06 13:37 | 50.90298 | 4.48134 | 116 ft | 3 kts | 155° |
| 2026-05-06 13:38 | 50.90317 | 4.48120 | 116 ft | 3 kts | 155° |
| 2026-05-06 13:38 | 50.90332 | 4.48109 | 117 ft | 3 kts | 147° |
| 2026-05-06 13:38 | 50.90346 | 4.48089 | 117 ft | 3 kts | 112° |
| 2026-05-06 13:38 | 50.90349 | 4.48060 | 117 ft | 3 kts | 79° |
| 2026-05-06 13:39 | 50.90344 | 4.48034 | 119 ft | 1 kts | 65° |
| 2026-05-06 13:39 | 50.90342 | 4.48025 | 118 ft | 0 kts | 65° |
| 2026-05-06 13:41 | 50.90345 | 4.48037 | 120 ft | 7 kts | 65° |
| 2026-05-06 13:41 | 50.90385 | 4.48175 | 118 ft | 16 kts | 65° |
| 2026-05-06 13:41 | 50.90435 | 4.48346 | 118 ft | 18 kts | 65° |
| 2026-05-06 13:41 | 50.90489 | 4.48532 | 118 ft | 20 kts | 65° |
| 2026-05-06 13:42 | 50.90549 | 4.48735 | 119 ft | 21 kts | 64° |
| 2026-05-06 13:42 | 50.90611 | 4.48952 | 116 ft | 22 kts | 68° |
| 2026-05-06 13:42 | 50.90674 | 4.49183 | 119 ft | 23 kts | 65° |
| 2026-05-06 13:42 | 50.90743 | 4.49415 | 121 ft | 24 kts | 64° |
| 2026-05-06 13:43 | 50.90813 | 4.49653 | 123 ft | 24 kts | 66° |
| 2026-05-06 13:43 | 50.90934 | 4.49800 | 121 ft | 23 kts | 29° |
| 2026-05-06 13:43 | 50.91065 | 4.49939 | 118 ft | 22 kts | 8° |
| 2026-05-06 13:43 | 50.91134 | 4.49889 | 120 ft | 7 kts | 264° |
| 2026-05-06 13:44 | 50.91120 | 4.49821 | 117 ft | 8 kts | 247° |
| 2026-05-06 13:44 | 50.91027 | 4.49494 | 120 ft | 68 kts | 245° |
| 2026-05-06 13:44 | 50.90733 | 4.48482 | 120 ft | 131 kts | 245° |
| 2026-05-06 13:44 | 50.90285 | 4.46930 | 209 ft | 169 kts | 248° |
| 2026-05-06 13:45 | 50.89976 | 4.45832 | 688 ft | 163 kts | 251° |
| 2026-05-06 13:45 | 50.89012 | 4.41954 | 2358 ft | 161 kts | 259° |
| 2026-05-06 13:45 | 50.88812 | 4.40794 | 2800 ft | 162 kts | 258° |
| 2026-05-06 13:46 | 50.88506 | 4.39091 | 3452 ft | 165 kts | 258° |
| 2026-05-06 13:46 | 50.88109 | 4.37262 | 3823 ft | 188 kts | 245° |
| 2026-05-06 13:46 | 50.87198 | 4.35599 | 4085 ft | 215 kts | 217° |
| 2026-05-06 13:46 | 50.85801 | 4.34404 | 4365 ft | 241 kts | 208° |
| 2026-05-06 13:47 | 50.84234 | 4.33156 | 4769 ft | 264 kts | 208° |
| 2026-05-06 13:47 | 50.82533 | 4.31802 | 5406 ft | 277 kts | 208° |
| 2026-05-06 13:47 | 50.80795 | 4.30417 | 6327 ft | 282 kts | 208° |
| 2026-05-06 13:47 | 50.79047 | 4.28963 | 7229 ft | 284 kts | 214° |
| 2026-05-06 13:48 | 50.77589 | 4.26854 | 8075 ft | 285 kts | 234° |
| 2026-05-06 13:48 | 50.76404 | 4.24370 | 8953 ft | 287 kts | 236° |
| 2026-05-06 13:48 | 50.75215 | 4.21810 | 9825 ft | 290 kts | 236° |
| 2026-05-06 13:48 | 50.74008 | 4.19179 | 10327 ft | 306 kts | 235° |
| 2026-05-06 13:49 | 50.72717 | 4.16350 | 10583 ft | 328 kts | 235° |
| 2026-05-06 13:49 | 50.71354 | 4.13371 | 11136 ft | 339 kts | 236° |
| 2026-05-06 13:49 | 50.69960 | 4.10334 | 11854 ft | 344 kts | 236° |
| 2026-05-06 13:49 | 50.68547 | 4.07268 | 12596 ft | 348 kts | 235° |
| 2026-05-06 13:50 | 50.67105 | 4.04151 | 13337 ft | 351 kts | 235° |
| 2026-05-06 13:50 | 50.65655 | 4.01026 | 14036 ft | 355 kts | 235° |
| 2026-05-06 13:50 | 50.64204 | 3.97907 | 14702 ft | 357 kts | 236° |
| 2026-05-06 13:50 | 50.62726 | 3.94737 | 15385 ft | 359 kts | 234° |
| 2026-05-06 13:51 | 50.61241 | 3.91547 | 16064 ft | 362 kts | 235° |
| 2026-05-06 13:51 | 50.59586 | 3.88545 | 16752 ft | 366 kts | 223° |
| 2026-05-06 13:51 | 50.57500 | 3.86205 | 17397 ft | 372 kts | 210° |
| 2026-05-06 13:51 | 50.55076 | 3.84728 | 18021 ft | 378 kts | 196° |
| 2026-05-06 13:52 | 50.52454 | 3.84220 | 18587 ft | 383 kts | 180° |
| 2026-05-06 13:52 | 50.49824 | 3.84541 | 18829 ft | 385 kts | 175° |
| 2026-05-06 13:52 | 50.47165 | 3.84999 | 18890 ft | 385 kts | 174° |
| 2026-05-06 13:52 | 50.44503 | 3.85476 | 18898 ft | 384 kts | 175° |
| 2026-05-06 13:53 | 50.41841 | 3.85957 | 18898 ft | 384 kts | 175° |
| 2026-05-06 13:53 | 50.39178 | 3.86430 | 18899 ft | 384 kts | 175° |
| 2026-05-06 13:53 | 50.36517 | 3.86895 | 18898 ft | 384 kts | 174° |
| 2026-05-06 13:53 | 50.33859 | 3.87348 | 18896 ft | 384 kts | 174° |
| 2026-05-06 13:54 | 50.31202 | 3.87791 | 18895 ft | 384 kts | 175° |
| 2026-05-06 13:54 | 50.28535 | 3.88237 | 18895 ft | 385 kts | 174° |
| 2026-05-06 13:54 | 50.25905 | 3.88679 | 18892 ft | 385 kts | 175° |
| 2026-05-06 13:54 | 50.23241 | 3.89133 | 18881 ft | 385 kts | 175° |
| 2026-05-06 13:55 | 50.20577 | 3.89591 | 18884 ft | 385 kts | 174° |
| 2026-05-06 13:55 | 50.17912 | 3.90049 | 18884 ft | 385 kts | 175° |
| 2026-05-06 13:55 | 50.15244 | 3.90504 | 18885 ft | 385 kts | 174° |
| 2026-05-06 13:55 | 50.12576 | 3.90954 | 18877 ft | 385 kts | 174° |
| 2026-05-06 13:56 | 50.09918 | 3.91403 | 18887 ft | 384 kts | 174° |
| 2026-05-06 13:56 | 50.07290 | 3.91847 | 18899 ft | 384 kts | 175° |
| 2026-05-06 13:56 | 50.04629 | 3.92297 | 18902 ft | 383 kts | 175° |
| 2026-05-06 13:56 | 50.01976 | 3.92745 | 18903 ft | 383 kts | 174° |
| 2026-05-06 13:57 | 49.99322 | 3.93193 | 18902 ft | 383 kts | 175° |
| 2026-05-06 13:57 | 49.96677 | 3.93639 | 18906 ft | 382 kts | 174° |
| 2026-05-06 13:57 | 49.94028 | 3.94085 | 18907 ft | 382 kts | 175° |
| 2026-05-06 13:57 | 49.91379 | 3.94533 | 18905 ft | 382 kts | 174° |
| 2026-05-06 13:58 | 49.88737 | 3.94982 | 18904 ft | 380 kts | 175° |
| 2026-05-06 13:58 | 49.86124 | 3.95421 | 18892 ft | 376 kts | 175° |
| 2026-05-06 13:58 | 49.83541 | 3.95853 | 18739 ft | 369 kts | 175° |
| 2026-05-06 13:58 | 49.81018 | 3.96276 | 18501 ft | 360 kts | 175° |
| 2026-05-06 13:59 | 49.78556 | 3.96688 | 18266 ft | 353 kts | 175° |
| 2026-05-06 13:59 | 49.76158 | 3.97090 | 18013 ft | 350 kts | 175° |
| 2026-05-06 13:59 | 49.73738 | 3.97497 | 17734 ft | 348 kts | 175° |
| 2026-05-06 13:59 | 49.71334 | 3.97902 | 17465 ft | 347 kts | 175° |
| 2026-05-06 14:00 | 49.68931 | 3.98305 | 17190 ft | 347 kts | 176° |
| 2026-05-06 14:00 | 49.66528 | 3.98704 | 16910 ft | 346 kts | 176° |
| 2026-05-06 14:00 | 49.64137 | 3.99098 | 16654 ft | 345 kts | 176° |
| 2026-05-06 14:00 | 49.61754 | 3.99496 | 16397 ft | 344 kts | 176° |
| 2026-05-06 14:01 | 49.59373 | 3.99712 | 16136 ft | 342 kts | 184° |
| 2026-05-06 14:01 | 49.57037 | 3.99167 | 15880 ft | 338 kts | 197° |
| 2026-05-06 14:01 | 49.54854 | 3.97862 | 15627 ft | 335 kts | 209° |
| 2026-05-06 14:01 | 49.52921 | 3.95953 | 15381 ft | 333 kts | 217° |
| 2026-05-06 14:02 | 49.51022 | 3.93907 | 15124 ft | 333 kts | 216° |
| 2026-05-06 14:02 | 49.49117 | 3.91872 | 14885 ft | 333 kts | 216° |
| 2026-05-06 14:02 | 49.47202 | 3.89840 | 14639 ft | 333 kts | 216° |
| 2026-05-06 14:02 | 49.45308 | 3.87834 | 14350 ft | 328 kts | 216° |
| 2026-05-06 14:03 | 49.43430 | 3.85846 | 13957 ft | 327 kts | 216° |
| 2026-05-06 14:03 | 49.41560 | 3.83867 | 13527 ft | 326 kts | 217° |
| 2026-05-06 14:03 | 49.39692 | 3.81892 | 13088 ft | 324 kts | 217° |
| 2026-05-06 14:03 | 49.37862 | 3.79957 | 12658 ft | 322 kts | 215° |
| 2026-05-06 14:04 | 49.36020 | 3.78004 | 12253 ft | 320 kts | 216° |
| 2026-05-06 14:04 | 49.34188 | 3.76060 | 11830 ft | 318 kts | 216° |
| 2026-05-06 14:04 | 49.32371 | 3.74136 | 11412 ft | 316 kts | 216° |
| 2026-05-06 14:04 | 49.30564 | 3.72225 | 11111 ft | 310 kts | 216° |
| 2026-05-06 14:05 | 49.28829 | 3.70361 | 10997 ft | 298 kts | 220° |
| 2026-05-06 14:05 | 49.27485 | 3.68068 | 10929 ft | 284 kts | 240° |
| 2026-05-06 14:05 | 49.26579 | 3.65358 | 10871 ft | 287 kts | 244° |
| 2026-05-06 14:05 | 49.25697 | 3.62614 | 10803 ft | 288 kts | 244° |
| 2026-05-06 14:06 | 49.24813 | 3.59854 | 10743 ft | 288 kts | 245° |
| 2026-05-06 14:06 | 49.23937 | 3.57122 | 10683 ft | 285 kts | 245° |
| 2026-05-06 14:06 | 49.23062 | 3.54411 | 10615 ft | 283 kts | 244° |
| 2026-05-06 14:06 | 49.22198 | 3.51732 | 10551 ft | 285 kts | 244° |
| 2026-05-06 14:07 | 49.21321 | 3.49006 | 10489 ft | 285 kts | 245° |
| 2026-05-06 14:07 | 49.20439 | 3.46278 | 10428 ft | 287 kts | 244° |
| 2026-05-06 14:07 | 49.19558 | 3.43554 | 10366 ft | 285 kts | 244° |
| 2026-05-06 14:07 | 49.18675 | 3.40827 | 10316 ft | 284 kts | 245° |
| 2026-05-06 14:08 | 49.17806 | 3.38147 | 10249 ft | 283 kts | 245° |
| 2026-05-06 14:08 | 49.16928 | 3.35439 | 10121 ft | 284 kts | 245° |
| 2026-05-06 14:08 | 49.16055 | 3.32740 | 10063 ft | 282 kts | 244° |
| 2026-05-06 14:08 | 49.15183 | 3.30041 | 9993 ft | 282 kts | 245° |
| 2026-05-06 14:09 | 49.14314 | 3.27355 | 9862 ft | 282 kts | 245° |
| 2026-05-06 14:09 | 49.13433 | 3.24642 | 9330 ft | 286 kts | 245° |
| 2026-05-06 14:09 | 49.12563 | 3.21970 | 8943 ft | 283 kts | 244° |
| 2026-05-06 14:09 | 49.11685 | 3.19277 | 8530 ft | 283 kts | 244° |
| 2026-05-06 14:10 | 49.10797 | 3.16557 | 8082 ft | 283 kts | 245° |
| 2026-05-06 14:10 | 49.09935 | 3.13921 | 7533 ft | 279 kts | 245° |
| 2026-05-06 14:10 | 49.09065 | 3.11256 | 6784 ft | 280 kts | 246° |
| 2026-05-06 14:10 | 49.08199 | 3.08612 | 6238 ft | 273 kts | 246° |
| 2026-05-06 14:11 | 49.07378 | 3.06115 | 6054 ft | 251 kts | 246° |
| 2026-05-06 14:11 | 49.06622 | 3.03827 | 5935 ft | 231 kts | 246° |
| 2026-05-06 14:11 | 49.05930 | 3.01728 | 5836 ft | 217 kts | 246° |
| 2026-05-06 14:11 | 49.05268 | 2.99711 | 5750 ft | 207 kts | 247° |
| 2026-05-06 14:12 | 49.04864 | 2.97697 | 5720 ft | 195 kts | 265° |
| 2026-05-06 14:12 | 49.04710 | 2.95652 | 5525 ft | 193 kts | 269° |
| 2026-05-06 14:12 | 49.04600 | 2.93620 | 5289 ft | 192 kts | 269° |
| 2026-05-06 14:12 | 49.04498 | 2.91593 | 5039 ft | 192 kts | 269° |
| 2026-05-06 14:13 | 49.04396 | 2.89564 | 4785 ft | 191 kts | 269° |
| 2026-05-06 14:13 | 49.04295 | 2.87566 | 4525 ft | 191 kts | 270° |
| 2026-05-06 14:13 | 49.04193 | 2.85545 | 4259 ft | 190 kts | 270° |
| 2026-05-06 14:13 | 49.04091 | 2.83538 | 3990 ft | 189 kts | 270° |
| 2026-05-06 14:14 | 49.03990 | 2.81540 | 3732 ft | 189 kts | 270° |
| 2026-05-06 14:14 | 49.03887 | 2.79540 | 3484 ft | 187 kts | 270° |
| 2026-05-06 14:14 | 49.03787 | 2.77591 | 3235 ft | 183 kts | 270° |
| 2026-05-06 14:14 | 49.03688 | 2.75661 | 2985 ft | 181 kts | 270° |
| 2026-05-06 14:15 | 49.03591 | 2.73784 | 2744 ft | 178 kts | 269° |
| 2026-05-06 14:15 | 49.03494 | 2.71910 | 2508 ft | 172 kts | 270° |
| 2026-05-06 14:15 | 49.03400 | 2.70106 | 2264 ft | 168 kts | 269° |
| 2026-05-06 14:15 | 49.03311 | 2.68395 | 2041 ft | 156 kts | 269° |
| 2026-05-06 14:16 | 49.03227 | 2.66793 | 1842 ft | 149 kts | 269° |
| 2026-05-06 14:16 | 49.03147 | 2.65248 | 1643 ft | 144 kts | 269° |
| 2026-05-06 14:16 | 49.03070 | 2.63783 | 1455 ft | 140 kts | 270° |
| 2026-05-06 14:16 | 49.02992 | 2.62299 | 1251 ft | 137 kts | 268° |
| 2026-05-06 14:17 | 49.02916 | 2.60857 | 1056 ft | 137 kts | 271° |
| 2026-05-06 14:17 | 49.02841 | 2.59409 | 852 ft | 137 kts | 270° |
| 2026-05-06 14:17 | 49.02770 | 2.57956 | 684 ft | 138 kts | 268° |
| 2026-05-06 14:17 | 49.02685 | 2.56526 | 464 ft | 137 kts | 269° |
| 2026-05-06 14:18 | 49.02610 | 2.55124 | 357 ft | 122 kts | 268° |
| 2026-05-06 14:18 | 49.02561 | 2.54089 | 354 ft | 69 kts | 266° |
| 2026-05-06 14:18 | 49.02522 | 2.53558 | 363 ft | 37 kts | 249° |
| 2026-05-06 14:18 | 49.02423 | 2.53284 | 354 ft | 19 kts | 236° |
| 2026-05-06 14:19 | 49.02348 | 2.53105 | 354 ft | 20 kts | 250° |
| 2026-05-06 14:19 | 49.02322 | 2.52886 | 354 ft | 22 kts | 265° |
| 2026-05-06 14:19 | 49.02311 | 2.52646 | 356 ft | 23 kts | 266° |
| 2026-05-06 14:19 | 49.02293 | 2.52392 | 354 ft | 25 kts | 255° |
| 2026-05-06 14:20 | 49.02158 | 2.52323 | 360 ft | 23 kts | 185° |
| 2026-05-06 14:20 | 49.02004 | 2.52340 | 359 ft | 21 kts | 174° |
| 2026-05-06 14:20 | 49.01866 | 2.52358 | 358 ft | 19 kts | 174° |
| 2026-05-06 14:20 | 49.01811 | 2.52486 | 356 ft | 15 kts | 85° |
| 2026-05-06 14:21 | 49.01818 | 2.52638 | 362 ft | 14 kts | 86° |
| 2026-05-06 14:21 | 49.01827 | 2.52826 | 358 ft | 23 kts | 85° |
| 2026-05-06 14:21 | 49.01843 | 2.53071 | 354 ft | 24 kts | 85° |
| 2026-05-06 14:21 | 49.01854 | 2.53336 | 355 ft | 26 kts | 83° |
| 2026-05-06 14:22 | 49.01872 | 2.53616 | 354 ft | 27 kts | 85° |
| 2026-05-06 14:22 | 49.01888 | 2.53913 | 356 ft | 29 kts | 85° |
| 2026-05-06 14:22 | 49.01874 | 2.54119 | 354 ft | 13 kts | 148° |
| 2026-05-06 14:22 | 49.01813 | 2.54061 | 357 ft | 10 kts | 243° |
| 2026-05-06 14:23 | 49.01790 | 2.53965 | 354 ft | 9 kts | 250° |
| 2026-05-06 14:23 | 49.01747 | 2.53836 | 359 ft | 17 kts | 237° |
| 2026-05-06 14:23 | 49.01675 | 2.53819 | 362 ft | 6 kts | 169° |
| 2026-05-06 14:23 | 49.01637 | 2.53829 | 354 ft | 5 kts | 169° |
| 2026-05-06 14:24 | 49.01613 | 2.53836 | 361 ft | 0 kts | 170° |